Terminal Aerodrome Forecast
Issued by NWS

Current Version | Previous Version | Graphics & Text | Print | Product List | Glossary On
Versions: 1 2 3 4 5 6 7 8 9 10 11 12 13 14 15 16 17 18 19 20 21 22 23 24 25 26 27
000
FTUS41 KILN 261731
TAFLUK
TAF
KLUK 261731Z 2618/2718 23010KT P6SM BKN050
     FM261900 25008KT P6SM VCTS BKN050CB
      TEMPO 2621/2701 3SM TSRA BKN040CB
     FM270100 20003KT P6SM VCSH SCT040 BKN100
     FM270500 03005KT P6SM OVC022
     FM271600 06005KT P6SM OVC035=

USA.gov is the U.S. government's official web portal to all federal, state and local government web resources and services.